Aérodrome :
LOGIN :

S'inscrire | Disclaimer

   EN    FR    IT 

 










Légende :    VFR   VFR Marginal   IFR   IFR Intensif   IFR Très Intensif
Visi : 
Plafond : 
>= 8 km
>= 3000ft
5 à 8 km
1000 à 3000 ft
1500m à 5 km
500 à 1000 ft
800 à 1500m
200 à 500 ft
< 800m
< 200 ft
Symboles :   Orages  Brouillard  Fortes neiges  Fortes précipitations  Vent > 20 kt
SIGMETs :   Divers  Orages  Givrage  Turbulence  Onde Orograph.  Cendres Volcan.







- Altitude de l'aérodrome : 255 ft


ENGC - Gullfaks C oil platform

DERNIER METAR :
  • 161750Z 20020KT CAVOK 12/10 Q1012 W10/S3

METARs EXPIRÉS :
  • 161650Z 19021KT 9999 BKN010 12/11 Q1011 W11/S3
  • 161620Z 18020KT 9999 SCT010 BKN018 11/11 Q1011 W11/S3
  • 161550Z 18022KT 9999 FEW006 BKN015 11/11 Q1011 W11/S3
  • 161520Z 18023KT 9999 OVC008 11/10 Q1011 W10/S3

TAF TAF ENGC
Valide du 16 à 18h jusqu'au 17 à 18h UTC


1618/1718 18022KT 9999 SCT008 BKN020
TEMPO 1618/1709 BKN006
TEMPO 1709/1713 4000 SHRA BKN008 SCT020CB
BECMG 1706/1708 17032KT
PROB40
TEMPO 1706/1713 0200 FG VV002
Pas de NOTAMs connus pour ce terrain.



MET'MAP, la Météo Aéronautique d'un coup d'oeil ! - Copyright ORBIFLY Décembre 2007 - Disclaimer

ORBIFLY MET'MAP TEAM :

Programmation & Développement : Alexandra Zaïnal
Conception & Développement : Baudouin d'Aumeries
Co-Programmation & Développement : Marc-Olivier Méhu
Soutien technique & logistique : Manuel Goepfert

Contact : metmap@orbifly.com




SOURCES & CREDITS :

   NOAA